sensor_id;sensor_type;location;lat;lon;timestamp;pressure;altitude;pressure_sealevel;temperature;humidity
40117;BME280;25829;50.228;18.936;2023-05-01T00:01:31;99094.69;;;3.38;60.08
40117;BME280;25829;50.228;18.936;2023-05-01T00:04:32;99094.84;;;3.36;59.94
40117;BME280;25829;50.228;18.936;2023-05-01T00:07:34;99092.66;;;3.32;59.89
40117;BME280;25829;50.228;18.936;2023-05-01T00:10:35;99087.50;;;3.22;59.64
40117;BME280;25829;50.228;18.936;2023-05-01T00:13:36;99094.09;;;3.16;59.88
40117;BME280;25829;50.228;18.936;2023-05-01T00:16:37;99088.34;;;3.13;59.73
40117;BME280;25829;50.228;18.936;2023-05-01T00:19:38;99088.94;;;3.07;59.67
40117;BME280;25829;50.228;18.936;2023-05-01T00:22:39;99094.13;;;3.07;60.28
40117;BME280;25829;50.228;18.936;2023-05-01T00:25:40;99094.72;;;3.01;60.40
40117;BME280;25829;50.228;18.936;2023-05-01T00:28:40;99089.94;;;2.96;60.36
40117;BME280;25829;50.228;18.936;2023-05-01T00:31:42;99090.22;;;2.93;60.48
40117;BME280;25829;50.228;18.936;2023-05-01T00:34:43;99089.03;;;2.87;60.48
40117;BME280;25829;50.228;18.936;2023-05-01T00:37:45;99088.31;;;2.85;60.88
40117;BME280;25829;50.228;18.936;2023-05-01T00:40:47;99082.59;;;2.82;60.61
40117;BME280;25829;50.228;18.936;2023-05-01T00:43:47;99085.47;;;2.79;60.83
40117;BME280;25829;50.228;18.936;2023-05-01T00:46:49;99086.44;;;2.78;61.05
40117;BME280;25829;50.228;18.936;2023-05-01T00:49:51;99093.44;;;2.77;61.01
40117;BME280;25829;50.228;18.936;2023-05-01T00:52:52;99087.53;;;2.75;61.03
40117;BME280;25829;50.228;18.936;2023-05-01T00:55:54;99076.84;;;2.78;60.87
40117;BME280;25829;50.228;18.936;2023-05-01T00:58:56;99078.50;;;2.69;61.28
40117;BME280;25829;50.228;18.936;2023-05-01T01:01:57;99080.72;;;2.64;61.22
40117;BME280;25829;50.228;18.936;2023-05-01T01:05:04;99083.59;;;2.61;61.49
40117;BME280;25829;50.228;18.936;2023-05-01T01:11:38;99089.38;;;2.55;61.35
40117;BME280;25829;50.228;18.936;2023-05-01T01:14:49;99088.81;;;2.51;61.39
40117;BME280;25829;50.228;18.936;2023-05-01T01:17:52;99077.88;;;2.48;61.34
40117;BME280;25829;50.228;18.936;2023-05-01T01:21:07;99079.66;;;2.47;61.42
40117;BME280;25829;50.228;18.936;2023-05-01T01:31:08;99072.28;;;2.33;61.26
40117;BME280;25829;50.228;18.936;2023-05-01T01:34:19;99072.56;;;2.30;61.71
40117;BME280;25829;50.228;18.936;2023-05-01T01:37:31;99067.78;;;2.25;61.68
40117;BME280;25829;50.228;18.936;2023-05-01T01:40:48;99073.09;;;2.24;61.55
40117;BME280;25829;50.228;18.936;2023-05-01T01:44:36;99061.34;;;2.20;61.91
40117;BME280;25829;50.228;18.936;2023-05-01T01:47:35;99056.84;;;2.12;61.81
40117;BME280;25829;50.228;18.936;2023-05-01T01:50:40;99051.22;;;2.07;62.07
40117;BME280;25829;50.228;18.936;2023-05-01T01:53:48;99055.47;;;2.08;62.24
40117;BME280;25829;50.228;18.936;2023-05-01T01:56:52;99053.25;;;2.03;61.91
40117;BME280;25829;50.228;18.936;2023-05-01T01:59:57;99054.50;;;1.99;61.98
40117;BME280;25829;50.228;18.936;2023-05-01T02:03:02;99040.94;;;1.96;62.19
40117;BME280;25829;50.228;18.936;2023-05-01T02:06:04;99045.75;;;1.91;62.21
40117;BME280;25829;50.228;18.936;2023-05-01T02:09:09;99037.97;;;1.91;62.42
40117;BME280;25829;50.228;18.936;2023-05-01T02:12:13;99039.19;;;1.87;62.52
40117;BME280;25829;50.228;18.936;2023-05-01T02:15:17;99035.19;;;1.83;62.63
40117;BME280;25829;50.228;18.936;2023-05-01T02:18:21;99030.41;;;1.78;62.66
40117;BME280;25829;50.228;18.936;2023-05-01T02:21:23;99027.13;;;1.76;63.08
40117;BME280;25829;50.228;18.936;2023-05-01T02:24:27;99023.03;;;1.73;62.89
40117;BME280;25829;50.228;18.936;2023-05-01T02:27:33;99026.44;;;1.74;62.71
40117;BME280;25829;50.228;18.936;2023-05-01T02:30:35;99018.78;;;1.72;63.06
40117;BME280;25829;50.228;18.936;2023-05-01T02:33:37;99015.22;;;1.73;63.37
40117;BME280;25829;50.228;18.936;2023-05-01T02:36:37;99027.28;;;1.74;63.04
40117;BME280;25829;50.228;18.936;2023-05-01T02:39:39;99023.16;;;1.72;63.39
40117;BME280;25829;50.228;18.936;2023-05-01T02:42:42;99018.66;;;1.74;63.37
40117;BME280;25829;50.228;18.936;2023-05-01T02:45:44;99014.25;;;1.74;63.14
40117;BME280;25829;50.228;18.936;2023-05-01T02:48:47;99018.78;;;1.72;62.86
40117;BME280;25829;50.228;18.936;2023-05-01T02:51:49;99015.34;;;1.72;63.04
40117;BME280;25829;50.228;18.936;2023-05-01T02:54:50;99018.78;;;1.72;63.30
40117;BME280;25829;50.228;18.936;2023-05-01T02:57:51;99022.22;;;1.73;63.13
40117;BME280;25829;50.228;18.936;2023-05-01T03:00:52;99015.63;;;1.69;63.32
40117;BME280;25829;50.228;18.936;2023-05-01T03:03:54;99015.78;;;1.67;63.67
40117;BME280;25829;50.228;18.936;2023-05-01T03:06:55;99015.91;;;1.66;63.69
40117;BME280;25829;50.228;18.936;2023-05-01T03:09:56;99022.75;;;1.67;63.81
40117;BME280;25829;50.228;18.936;2023-05-01T03:12:57;99023.19;;;1.62;63.41
40117;BME280;25829;50.228;18.936;2023-05-01T03:15:58;99019.88;;;1.60;63.67
40117;BME280;25829;50.228;18.936;2023-05-01T03:18:58;99026.31;;;1.56;63.79
40117;BME280;25829;50.228;18.936;2023-05-01T03:21:59;99020.41;;;1.54;63.81
40117;BME280;25829;50.228;18.936;2023-05-01T03:25:00;99018.63;;;1.54;63.50
40117;BME280;25829;50.228;18.936;2023-05-01T03:28:01;99014.66;;;1.50;63.57
40117;BME280;25829;50.228;18.936;2023-05-01T03:31:02;99015.75;;;1.48;63.77
40117;BME280;25829;50.228;18.936;2023-05-01T03:34:04;99012.47;;;1.46;63.84
40117;BME280;25829;50.228;18.936;2023-05-01T03:37:05;99015.91;;;1.46;63.72
40117;BME280;25829;50.228;18.936;2023-05-01T03:40:06;99014.94;;;1.47;63.83
40117;BME280;25829;50.228;18.936;2023-05-01T03:43:26;99013.56;;;1.43;64.00
40117;BME280;25829;50.228;18.936;2023-05-01T03:46:29;99005.47;;;1.37;63.93
40117;BME280;25829;50.228;18.936;2023-05-01T03:49:30;99008.88;;;1.27;64.37
40117;BME280;25829;50.228;18.936;2023-05-01T03:52:31;99010.41;;;1.30;64.12
40117;BME280;25829;50.228;18.936;2023-05-01T03:55:32;99006.19;;;1.39;64.56
40117;BME280;25829;50.228;18.936;2023-05-01T03:58:33;99004.00;;;1.44;64.53
40117;BME280;25829;50.228;18.936;2023-05-01T04:01:34;99000.84;;;1.50;64.11
40117;BME280;25829;50.228;18.936;2023-05-01T04:04:34;99001.94;;;1.57;64.51
40117;BME280;25829;50.228;18.936;2023-05-01T04:07:35;98992.09;;;1.61;64.43
40117;BME280;25829;50.228;18.936;2023-05-01T04:10:36;98989.91;;;1.66;64.68
40117;BME280;25829;50.228;18.936;2023-05-01T04:13:38;98985.09;;;1.71;64.49
40117;BME280;25829;50.228;18.936;2023-05-01T04:16:39;98980.28;;;1.76;64.58
40117;BME280;25829;50.228;18.936;2023-05-01T04:19:40;98988.38;;;1.83;65.02
40117;BME280;25829;50.228;18.936;2023-05-01T04:22:41;98982.63;;;1.89;64.92
40117;BME280;25829;50.228;18.936;2023-05-01T04:25:42;98985.50;;;1.95;65.24
40117;BME280;25829;50.228;18.936;2023-05-01T04:28:50;98979.44;;;2.05;64.89
40117;BME280;25829;50.228;18.936;2023-05-01T04:31:55;98983.69;;;2.15;65.20
40117;BME280;25829;50.228;18.936;2023-05-01T04:34:56;98978.44;;;2.25;64.95
40117;BME280;25829;50.228;18.936;2023-05-01T04:37:57;98984.72;;;2.32;65.08
40117;BME280;25829;50.228;18.936;2023-05-01T04:40:58;98981.13;;;2.43;64.83
40117;BME280;25829;50.228;18.936;2023-05-01T04:43:58;98986.06;;;2.46;65.05
40117;BME280;25829;50.228;18.936;2023-05-01T04:47:03;98982.28;;;2.58;65.09
40117;BME280;25829;50.228;18.936;2023-05-01T04:50:09;98981.00;;;2.72;65.51
40117;BME280;25829;50.228;18.936;2023-05-01T04:53:11;98984.91;;;2.86;65.45
40117;BME280;25829;50.228;18.936;2023-05-01T04:56:13;98993.06;;;3.01;65.07
40117;BME280;25829;50.228;18.936;2023-05-01T04:59:15;98992.94;;;3.20;65.30
40117;BME280;25829;50.228;18.936;2023-05-01T05:02:15;98985.56;;;3.43;64.88
40117;BME280;25829;50.228;18.936;2023-05-01T05:05:16;98991.00;;;3.67;65.01
40117;BME280;25829;50.228;18.936;2023-05-01T05:08:17;98978.19;;;4.00;64.76
40117;BME280;25829;50.228;18.936;2023-05-01T05:11:27;98989.69;;;4.41;64.63
40117;BME280;25829;50.228;18.936;2023-05-01T05:14:34;98986.97;;;4.85;64.50
40117;BME280;25829;50.228;18.936;2023-05-01T05:17:35;98973.53;;;5.31;62.64
40117;BME280;25829;50.228;18.936;2023-05-01T05:20:37;98985.84;;;5.79;61.62
40117;BME280;25829;50.228;18.936;2023-05-01T05:23:39;98977.47;;;6.25;59.12
40117;BME280;25829;50.228;18.936;2023-05-01T05:26:40;98974.06;;;6.72;58.65
40117;BME280;25829;50.228;18.936;2023-05-01T05:29:41;98978.13;;;7.14;58.21
40117;BME280;25829;50.228;18.936;2023-05-01T05:32:46;98975.47;;;7.45;56.26
40117;BME280;25829;50.228;18.936;2023-05-01T05:35:48;98971.88;;;7.69;55.46
40117;BME280;25829;50.228;18.936;2023-05-01T05:38:49;98975.28;;;7.92;54.51
40117;BME280;25829;50.228;18.936;2023-05-01T05:41:52;98978.06;;;8.14;53.39
40117;BME280;25829;50.228;18.936;2023-05-01T05:44:59;98976.63;;;8.26;52.41
40117;BME280;25829;50.228;18.936;2023-05-01T05:48:00;98972.00;;;8.43;52.81
40117;BME280;25829;50.228;18.936;2023-05-01T05:51:04;98963.59;;;8.62;52.29
40117;BME280;25829;50.228;18.936;2023-05-01T05:54:08;98963.66;;;8.84;51.83
40117;BME280;25829;50.228;18.936;2023-05-01T05:57:10;98962.88;;;9.05;50.98
40117;BME280;25829;50.228;18.936;2023-05-01T06:00:22;98957.28;;;9.29;49.25
40117;BME280;25829;50.228;18.936;2023-05-01T06:03:29;98954.88;;;9.49;47.73
40117;BME280;25829;50.228;18.936;2023-05-01T06:06:34;98954.44;;;9.67;48.30
40117;BME280;25829;50.228;18.936;2023-05-01T06:09:35;98958.09;;;9.94;48.44
40117;BME280;25829;50.228;18.936;2023-05-01T06:12:36;98958.66;;;10.18;47.00
40117;BME280;25829;50.228;18.936;2023-05-01T06:15:44;98960.81;;;10.35;46.10
40117;BME280;25829;50.228;18.936;2023-05-01T06:18:47;98969.47;;;10.57;45.80
40117;BME280;25829;50.228;18.936;2023-05-01T06:21:50;98965.69;;;10.73;43.67
40117;BME280;25829;50.228;18.936;2023-05-01T06:24:51;98976.00;;;10.68;44.18
40117;BME280;25829;50.228;18.936;2023-05-01T06:28:01;98969.09;;;10.67;42.73
40117;BME280;25829;50.228;18.936;2023-05-01T06:31:05;98967.47;;;10.59;43.61
40117;BME280;25829;50.228;18.936;2023-05-01T06:34:44;98970.94;;;10.67;41.42
40117;BME280;25829;50.228;18.936;2023-05-01T06:37:45;98972.97;;;10.71;43.53
40117;BME280;25829;50.228;18.936;2023-05-01T06:41:03;98967.69;;;10.71;41.46
40117;BME280;25829;50.228;18.936;2023-05-01T06:44:07;98968.47;;;10.65;40.45
40117;BME280;25829;50.228;18.936;2023-05-01T06:47:08;98961.28;;;10.46;39.53
40117;BME280;25829;50.228;18.936;2023-05-01T06:50:10;98970.75;;;10.33;40.71
40117;BME280;25829;50.228;18.936;2023-05-01T06:53:20;98959.75;;;10.30;41.56
40117;BME280;25829;50.228;18.936;2023-05-01T06:56:22;98963.00;;;10.25;40.76
40117;BME280;25829;50.228;18.936;2023-05-01T06:59:23;98955.22;;;10.17;40.94
40117;BME280;25829;50.228;18.936;2023-05-01T07:02:27;98960.16;;;10.27;41.78
40117;BME280;25829;50.228;18.936;2023-05-01T07:05:34;98956.56;;;10.41;42.22
40117;BME280;25829;50.228;18.936;2023-05-01T07:12:10;98955.59;;;10.49;41.99
40117;BME280;25829;50.228;18.936;2023-05-01T07:15:14;98953.03;;;10.62;40.80
40117;BME280;25829;50.228;18.936;2023-05-01T07:18:22;98947.69;;;10.77;41.72
40117;BME280;25829;50.228;18.936;2023-05-01T09:25:32;98870.47;;;24.08;25.84
40117;BME280;25829;50.228;18.936;2023-05-01T09:29:07;98850.56;;;24.03;24.00
40117;BME280;25829;50.228;18.936;2023-05-01T09:32:26;98846.53;;;24.01;27.85
40117;BME280;25829;50.228;18.936;2023-05-01T09:44:19;98861.72;;;23.63;26.64
40117;BME280;25829;50.228;18.936;2023-05-01T09:47:27;98851.75;;;23.63;26.60
40117;BME280;25829;50.228;18.936;2023-05-01T09:50:49;98851.69;;;23.97;25.93
40117;BME280;25829;50.228;18.936;2023-05-01T09:53:50;98849.81;;;23.93;24.92
40117;BME280;25829;50.228;18.936;2023-05-01T09:56:57;98847.63;;;23.71;26.13
40117;BME280;25829;50.228;18.936;2023-05-01T10:00:07;98855.13;;;23.05;26.15
40117;BME280;25829;50.228;18.936;2023-05-01T10:03:21;98846.88;;;22.42;27.59
40117;BME280;25829;50.228;18.936;2023-05-01T10:11:11;98838.44;;;20.92;23.16
40117;BME280;25829;50.228;18.936;2023-05-01T10:14:12;98832.28;;;20.13;26.54
40117;BME280;25829;50.228;18.936;2023-05-01T10:17:22;98836.22;;;19.63;22.55
40117;BME280;25829;50.228;18.936;2023-05-01T10:20:23;98824.59;;;19.10;26.58
40117;BME280;25829;50.228;18.936;2023-05-01T10:23:24;98827.53;;;18.81;26.66
40117;BME280;25829;50.228;18.936;2023-05-01T10:26:26;98820.13;;;18.39;24.93
40117;BME280;25829;50.228;18.936;2023-05-01T10:29:39;98827.03;;;17.97;23.98
40117;BME280;25829;50.228;18.936;2023-05-01T10:32:41;98821.59;;;17.69;26.53
40117;BME280;25829;50.228;18.936;2023-05-01T10:35:47;98820.94;;;17.62;27.34
40117;BME280;25829;50.228;18.936;2023-05-01T10:38:56;98811.44;;;17.50;25.73
40117;BME280;25829;50.228;18.936;2023-05-01T10:42:08;98814.09;;;17.33;25.94
40117;BME280;25829;50.228;18.936;2023-05-01T10:45:29;98798.69;;;17.18;26.55
40117;BME280;25829;50.228;18.936;2023-05-01T10:51:57;98796.69;;;16.96;27.30
40117;BME280;25829;50.228;18.936;2023-05-01T11:02:20;98791.34;;;16.80;28.13
40117;BME280;25829;50.228;18.936;2023-05-01T11:13:02;98781.81;;;16.84;28.08
40117;BME280;25829;50.228;18.936;2023-05-01T11:16:40;98774.00;;;16.94;27.44
40117;BME280;25829;50.228;18.936;2023-05-01T11:19:47;98772.88;;;16.90;25.33
40117;BME280;25829;50.228;18.936;2023-05-01T11:22:50;98771.53;;;16.75;26.83
40117;BME280;25829;50.228;18.936;2023-05-01T11:26:01;98757.09;;;16.71;27.45
40117;BME280;25829;50.228;18.936;2023-05-01T12:04:01;98711.56;;;17.24;30.68
40117;BME280;25829;50.228;18.936;2023-05-01T12:07:02;98703.47;;;17.35;30.64
40117;BME280;25829;50.228;18.936;2023-05-01T12:10:03;98701.31;;;17.32;30.38
40117;BME280;25829;50.228;18.936;2023-05-01T12:13:05;98707.50;;;17.38;31.24
40117;BME280;25829;50.228;18.936;2023-05-01T12:16:06;98695.09;;;17.27;30.49
40117;BME280;25829;50.228;18.936;2023-05-01T12:19:14;98692.69;;;17.25;30.83
40117;BME280;25829;50.228;18.936;2023-05-01T12:22:21;98692.19;;;17.28;30.45
40117;BME280;25829;50.228;18.936;2023-05-01T12:25:34;98689.03;;;17.31;30.17
40117;BME280;25829;50.228;18.936;2023-05-01T12:28:35;98693.22;;;17.27;31.11
40117;BME280;25829;50.228;18.936;2023-05-01T12:35:52;98679.88;;;17.27;31.75
40117;BME280;25829;50.228;18.936;2023-05-01T12:39:14;98679.56;;;17.24;31.46
40117;BME280;25829;50.228;18.936;2023-05-01T12:42:15;98669.97;;;17.23;30.87
40117;BME280;25829;50.228;18.936;2023-05-01T12:45:49;98664.38;;;17.24;31.73
40117;BME280;25829;50.228;18.936;2023-05-01T12:49:01;98667.94;;;17.30;32.29
40117;BME280;25829;50.228;18.936;2023-05-01T12:52:06;98651.69;;;17.31;32.26
40117;BME280;25829;50.228;18.936;2023-05-01T12:55:08;98655.16;;;17.32;30.78
40117;BME280;25829;50.228;18.936;2023-05-01T12:58:09;98645.47;;;17.26;31.80
40117;BME280;25829;50.228;18.936;2023-05-01T13:01:10;98652.69;;;17.25;30.55
40117;BME280;25829;50.228;18.936;2023-05-01T13:04:10;98638.47;;;17.19;31.78
40117;BME280;25829;50.228;18.936;2023-05-01T13:07:16;98636.91;;;17.24;32.08
40117;BME280;25829;50.228;18.936;2023-05-01T13:10:30;98635.94;;;17.30;32.12
40117;BME280;25829;50.228;18.936;2023-05-01T13:13:33;98618.63;;;17.32;32.56
40117;BME280;25829;50.228;18.936;2023-05-01T13:16:50;98618.47;;;17.39;32.03
40117;BME280;25829;50.228;18.936;2023-05-01T13:20:00;98617.13;;;17.41;32.48
40117;BME280;25829;50.228;18.936;2023-05-01T13:23:09;98619.56;;;17.43;31.38
40117;BME280;25829;50.228;18.936;2023-05-01T13:26:10;98616.59;;;17.39;32.42
40117;BME280;25829;50.228;18.936;2023-05-01T13:29:14;98603.56;;;17.43;32.51
40117;BME280;25829;50.228;18.936;2023-05-01T13:32:16;98614.53;;;17.47;32.11
40117;BME280;25829;50.228;18.936;2023-05-01T13:35:25;98607.34;;;17.47;31.78
40117;BME280;25829;50.228;18.936;2023-05-01T13:38:40;98597.75;;;17.46;32.27
40117;BME280;25829;50.228;18.936;2023-05-01T13:41:43;98598.03;;;17.50;32.93
40117;BME280;25829;50.228;18.936;2023-05-01T13:44:49;98597.28;;;17.54;32.47
40117;BME280;25829;50.228;18.936;2023-05-01T13:47:53;98588.22;;;17.55;32.24
40117;BME280;25829;50.228;18.936;2023-05-01T13:50:54;98582.66;;;17.57;32.65
40117;BME280;25829;50.228;18.936;2023-05-01T13:53:55;98584.03;;;17.59;31.71
40117;BME280;25829;50.228;18.936;2023-05-01T13:57:10;98569.84;;;17.59;32.17
40117;BME280;25829;50.228;18.936;2023-05-01T14:00:19;98576.03;;;17.59;31.64
40117;BME280;25829;50.228;18.936;2023-05-01T14:03:21;98567.50;;;17.62;32.26
40117;BME280;25829;50.228;18.936;2023-05-01T14:06:22;98571.28;;;17.66;31.16
40117;BME280;25829;50.228;18.936;2023-05-01T14:09:24;98564.09;;;17.67;32.21
40117;BME280;25829;50.228;18.936;2023-05-01T14:12:29;98562.78;;;17.69;31.85
40117;BME280;25829;50.228;18.936;2023-05-01T14:15:32;98561.47;;;17.72;32.13
40117;BME280;25829;50.228;18.936;2023-05-01T14:18:42;98553.53;;;17.77;31.92
40117;BME280;25829;50.228;18.936;2023-05-01T14:21:44;98551.94;;;17.81;31.51
40117;BME280;25829;50.228;18.936;2023-05-01T14:24:44;98546.13;;;17.84;31.48
40117;BME280;25829;50.228;18.936;2023-05-01T14:27:45;98542.16;;;17.87;31.65
40117;BME280;25829;50.228;18.936;2023-05-01T14:30:46;98538.72;;;17.91;31.58
40117;BME280;25829;50.228;18.936;2023-05-01T14:33:55;98538.75;;;17.97;30.27
40117;BME280;25829;50.228;18.936;2023-05-01T14:37:05;98535.78;;;17.93;31.02
40117;BME280;25829;50.228;18.936;2023-05-01T14:40:19;98535.22;;;17.91;30.26
40117;BME280;25829;50.228;18.936;2023-05-01T14:43:26;98526.44;;;17.90;31.68
40117;BME280;25829;50.228;18.936;2023-05-01T14:46:29;98521.63;;;17.92;31.20
40117;BME280;25829;50.228;18.936;2023-05-01T14:49:31;98525.38;;;17.91;31.38
40117;BME280;25829;50.228;18.936;2023-05-01T14:52:39;98516.00;;;17.89;29.91
40117;BME280;25829;50.228;18.936;2023-05-01T14:55:40;98516.25;;;17.87;31.57
40117;BME280;25829;50.228;18.936;2023-05-01T15:01:49;98519.47;;;17.89;31.41
40117;BME280;25829;50.228;18.936;2023-05-01T15:04:50;98512.53;;;17.88;31.07
40117;BME280;25829;50.228;18.936;2023-05-01T15:07:54;98509.34;;;17.91;31.25
40117;BME280;25829;50.228;18.936;2023-05-01T15:10:59;98516.56;;;17.91;31.28
40117;BME280;25829;50.228;18.936;2023-05-01T15:14:08;98507.97;;;17.89;30.95
40117;BME280;25829;50.228;18.936;2023-05-01T15:17:09;98501.28;;;17.86;30.29
40117;BME280;25829;50.228;18.936;2023-05-01T15:20:29;98498.38;;;17.88;30.41
40117;BME280;25829;50.228;18.936;2023-05-01T15:27:41;98494.69;;;17.94;30.34
40117;BME280;25829;50.228;18.936;2023-05-01T15:31:14;98492.31;;;17.98;30.05
40117;BME280;25829;50.228;18.936;2023-05-01T15:34:14;98492.84;;;18.00;31.19
40117;BME280;25829;50.228;18.936;2023-05-01T15:37:15;98486.72;;;17.99;30.92
40117;BME280;25829;50.228;18.936;2023-05-01T15:40:16;98478.19;;;17.97;31.28
40117;BME280;25829;50.228;18.936;2023-05-01T15:43:17;98481.97;;;18.01;30.62
40117;BME280;25829;50.228;18.936;2023-05-01T15:46:18;98475.84;;;18.01;31.04
40117;BME280;25829;50.228;18.936;2023-05-01T15:49:19;98472.91;;;18.02;30.90
40117;BME280;25829;50.228;18.936;2023-05-01T15:52:19;98483.56;;;18.02;30.28
40117;BME280;25829;50.228;18.936;2023-05-01T15:55:29;98483.00;;;18.00;30.22
40117;BME280;25829;50.228;18.936;2023-05-01T15:58:35;98481.66;;;17.98;30.03
40117;BME280;25829;50.228;18.936;2023-05-01T16:01:36;98478.69;;;17.94;30.19
40117;BME280;25829;50.228;18.936;2023-05-01T16:04:58;98481.84;;;17.91;30.15
40117;BME280;25829;50.228;18.936;2023-05-01T16:07:59;98487.69;;;17.88;30.12
40117;BME280;25829;50.228;18.936;2023-05-01T16:11:00;98485.81;;;17.83;30.04
40117;BME280;25829;50.228;18.936;2023-05-01T16:14:02;98489.78;;;17.81;29.87
40117;BME280;25829;50.228;18.936;2023-05-01T16:17:04;98489.78;;;17.81;30.54
40117;BME280;25829;50.228;18.936;2023-05-01T16:23:17;98485.19;;;17.76;30.29
40117;BME280;25829;50.228;18.936;2023-05-01T16:26:24;98481.97;;;17.74;30.05
40117;BME280;25829;50.228;18.936;2023-05-01T16:33:15;98472.19;;;17.53;29.64
40117;BME280;25829;50.228;18.936;2023-05-01T16:36:16;98466.50;;;17.44;30.36
40117;BME280;25829;50.228;18.936;2023-05-01T16:39:19;98469.13;;;17.39;30.16
40117;BME280;25829;50.228;18.936;2023-05-01T16:42:21;98474.38;;;17.34;30.41
40117;BME280;25829;50.228;18.936;2023-05-01T16:45:24;98473.53;;;17.28;30.25
40117;BME280;25829;50.228;18.936;2023-05-01T16:48:28;98468.16;;;17.23;30.19
40117;BME280;25829;50.228;18.936;2023-05-01T16:51:31;98467.34;;;17.23;30.33
40117;BME280;25829;50.228;18.936;2023-05-01T16:54:32;98460.03;;;17.13;28.54
40117;BME280;25829;50.228;18.936;2023-05-01T16:57:38;98466.91;;;17.09;30.23
40117;BME280;25829;50.228;18.936;2023-05-01T17:00:39;98463.63;;;17.02;30.25
40117;BME280;25829;50.228;18.936;2023-05-01T17:03:40;98474.19;;;16.96;30.40
40117;BME280;25829;50.228;18.936;2023-05-01T17:06:41;98473.41;;;16.96;30.63
40117;BME280;25829;50.228;18.936;2023-05-01T17:09:42;98467.53;;;16.94;30.76
40117;BME280;25829;50.228;18.936;2023-05-01T17:12:42;98469.59;;;16.87;30.54
40117;BME280;25829;50.228;18.936;2023-05-01T17:15:43;98474.84;;;16.82;31.00
40117;BME280;25829;50.228;18.936;2023-05-01T17:18:44;98471.81;;;16.73;30.80
40117;BME280;25829;50.228;18.936;2023-05-01T17:21:45;98465.59;;;16.67;31.15
40117;BME280;25829;50.228;18.936;2023-05-01T17:24:46;98470.88;;;16.62;31.23
40117;BME280;25829;50.228;18.936;2023-05-01T17:27:47;98468.38;;;16.56;31.44
40117;BME280;25829;50.228;18.936;2023-05-01T17:30:49;98477.34;;;16.49;31.65
40117;BME280;25829;50.228;18.936;2023-05-01T17:33:52;98466.63;;;16.44;31.47
40117;BME280;25829;50.228;18.936;2023-05-01T17:36:53;98462.84;;;16.40;31.68
40117;BME280;25829;50.228;18.936;2023-05-01T17:43:17;98466.66;;;16.27;32.00
40117;BME280;25829;50.228;18.936;2023-05-01T17:46:18;98463.34;;;16.20;32.19
40117;BME280;25829;50.228;18.936;2023-05-01T17:52:46;98472.31;;;15.97;32.41
40117;BME280;25829;50.228;18.936;2023-05-01T17:55:50;98469.22;;;15.89;32.28
40117;BME280;25829;50.228;18.936;2023-05-01T18:05:46;98472.75;;;15.61;32.60
40117;BME280;25829;50.228;18.936;2023-05-01T18:08:47;98472.34;;;15.52;32.73
40117;BME280;25829;50.228;18.936;2023-05-01T18:11:55;98466.59;;;15.43;32.63
40117;BME280;25829;50.228;18.936;2023-05-01T18:14:56;98464.81;;;15.32;32.66
40117;BME280;25829;50.228;18.936;2023-05-01T18:18:05;98467.00;;;15.23;32.56
40117;BME280;25829;50.228;18.936;2023-05-01T18:21:37;98466.13;;;15.18;32.61
40117;BME280;25829;50.228;18.936;2023-05-01T18:24:45;98475.59;;;15.14;33.12
40117;BME280;25829;50.228;18.936;2023-05-01T18:27:46;98475.16;;;15.05;33.28
40117;BME280;25829;50.228;18.936;2023-05-01T18:30:50;98471.50;;;14.94;33.39
40117;BME280;25829;50.228;18.936;2023-05-01T18:37:24;98475.72;;;14.78;32.98
40117;BME280;25829;50.228;18.936;2023-05-01T18:40:25;98479.28;;;14.72;33.40
40117;BME280;25829;50.228;18.936;2023-05-01T18:43:26;98480.22;;;14.66;33.48
40117;BME280;25829;50.228;18.936;2023-05-01T18:46:27;98475.38;;;14.63;33.33
40117;BME280;25829;50.228;18.936;2023-05-01T18:49:28;98476.75;;;14.54;33.34
40117;BME280;25829;50.228;18.936;2023-05-01T18:52:28;98479.56;;;14.47;33.84
40117;BME280;25829;50.228;18.936;2023-05-01T18:55:30;98478.97;;;14.45;33.89
40117;BME280;25829;50.228;18.936;2023-05-01T18:58:32;98475.72;;;14.43;33.87
40117;BME280;25829;50.228;18.936;2023-05-01T19:01:33;98478.03;;;14.40;34.08
40117;BME280;25829;50.228;18.936;2023-05-01T19:04:37;98470.78;;;14.35;34.07
40117;BME280;25829;50.228;18.936;2023-05-01T19:07:41;98472.75;;;14.28;34.01
40117;BME280;25829;50.228;18.936;2023-05-01T19:10:42;98477.91;;;14.23;34.25
40117;BME280;25829;50.228;18.936;2023-05-01T19:13:43;98474.09;;;14.19;34.41
40117;BME280;25829;50.228;18.936;2023-05-01T19:16:43;98475.13;;;14.18;34.73
40117;BME280;25829;50.228;18.936;2023-05-01T19:19:44;98471.91;;;14.15;34.79
40117;BME280;25829;50.228;18.936;2023-05-01T19:22:45;98467.06;;;14.12;34.88
40117;BME280;25829;50.228;18.936;2023-05-01T19:25:46;98460.38;;;14.10;34.92
40117;BME280;25829;50.228;18.936;2023-05-01T19:28:46;98470.66;;;14.06;35.16
40117;BME280;25829;50.228;18.936;2023-05-01T19:31:53;98463.16;;;14.03;35.24
40117;BME280;25829;50.228;18.936;2023-05-01T19:35:03;98475.81;;;14.01;35.18
40117;BME280;25829;50.228;18.936;2023-05-01T19:38:12;98465.66;;;13.98;35.36
40117;BME280;25829;50.228;18.936;2023-05-01T19:41:13;98461.84;;;13.94;35.58
40117;BME280;25829;50.228;18.936;2023-05-01T19:44:14;98459.91;;;13.89;35.74
40117;BME280;25829;50.228;18.936;2023-05-01T19:47:14;98460.13;;;13.88;35.92
40117;BME280;25829;50.228;18.936;2023-05-01T19:50:16;98462.66;;;13.83;35.95
40117;BME280;25829;50.228;18.936;2023-05-01T19:53:20;98465.16;;;13.78;35.91
40117;BME280;25829;50.228;18.936;2023-05-01T19:56:20;98472.41;;;13.71;36.36
40117;BME280;25829;50.228;18.936;2023-05-01T19:59:34;98474.50;;;13.69;36.63
40117;BME280;25829;50.228;18.936;2023-05-01T20:02:38;98469.31;;;13.62;36.66
40117;BME280;25829;50.228;18.936;2023-05-01T20:05:39;98471.59;;;13.58;36.51
40117;BME280;25829;50.228;18.936;2023-05-01T20:08:40;98467.34;;;13.57;36.73